createdAt,value
2017-08-08T00:00:32.069Z,90.80
2017-08-08T00:02:59.607Z,90.70
2017-08-08T00:05:27.122Z,90.70
2017-08-08T00:07:55.427Z,90.60
2017-08-08T00:10:22.942Z,90.60
2017-08-08T00:12:50.480Z,90.70
2017-08-08T00:15:18.001Z,90.80
2017-08-08T00:17:45.546Z,90.20
2017-08-08T00:20:13.062Z,90.50
2017-08-08T00:22:41.369Z,91.10
2017-08-08T00:25:08.881Z,91.10
2017-08-08T00:27:37.173Z,91.20
2017-08-08T00:30:04.710Z,91.10
2017-08-08T00:32:32.239Z,89.40
2017-08-08T00:34:59.775Z,86.60
2017-08-08T00:37:27.294Z,86.90
2017-08-08T00:39:54.836Z,89.90
2017-08-08T00:42:22.359Z,90.10
2017-08-08T00:44:49.890Z,90.80
2017-08-08T00:47:17.415Z,91.30
2017-08-08T00:49:44.951Z,91.50
2017-08-08T00:52:12.475Z,91.20
2017-08-08T00:54:40.017Z,90.50
2017-08-08T00:57:07.546Z,89.40
2017-08-08T00:59:35.848Z,90.80
2017-08-08T01:02:03.373Z,90.80
2017-08-08T01:04:30.921Z,90.80
2017-08-08T01:06:58.442Z,91.00
2017-08-08T01:09:25.999Z,90.90
2017-08-08T01:11:53.522Z,91.00
2017-08-08T01:14:21.048Z,91.00
2017-08-08T01:16:48.592Z,91.00
2017-08-08T01:19:16.117Z,91.10
2017-08-08T01:21:44.419Z,91.00
2017-08-08T01:24:11.933Z,91.00
2017-08-08T01:26:39.466Z,91.10
2017-08-08T01:29:07.760Z,86.40
2017-08-08T01:31:35.298Z,86.40
2017-08-08T01:34:02.822Z,89.50
2017-08-08T01:36:30.359Z,90.60
2017-08-08T01:38:57.883Z,91.10
2017-08-08T01:41:26.193Z,91.20
2017-08-08T01:43:53.713Z,91.10
2017-08-08T01:46:21.249Z,91.30
2017-08-08T01:48:49.559Z,91.90
2017-08-08T01:51:17.074Z,91.50
2017-08-08T01:53:45.387Z,91.40
2017-08-08T01:56:12.910Z,91.20
2017-08-08T01:58:40.451Z,91.40
2017-08-08T02:01:07.967Z,91.60
2017-08-08T02:03:35.542Z,91.70
2017-08-08T02:06:03.067Z,91.80
2017-08-08T02:08:30.610Z,91.70
2017-08-08T02:10:58.132Z,91.40
2017-08-08T02:13:25.655Z,91.10
2017-08-08T02:15:53.195Z,91.20
2017-08-08T02:18:20.721Z,91.20
2017-08-08T02:20:48.267Z,90.30
2017-08-08T02:23:15.786Z,89.20
2017-08-08T02:25:44.090Z,89.90
2017-08-08T02:28:11.615Z,89.70
2017-08-08T02:30:39.151Z,84.70
2017-08-08T02:33:06.679Z,88.10
2017-08-08T02:35:34.220Z,90.60
2017-08-08T02:38:01.746Z,91.50
2017-08-08T02:40:29.293Z,90.90
2017-08-08T02:42:56.814Z,91.70
2017-08-08T02:45:24.339Z,90.60
2017-08-08T02:47:52.643Z,90.50
2017-08-08T02:50:20.162Z,90.40
2017-08-08T02:52:47.699Z,90.10
2017-08-08T02:55:15.219Z,90.90
2017-08-08T02:57:42.761Z,91.80
2017-08-08T03:00:11.050Z,92.20
2017-08-08T03:02:38.600Z,91.80
2017-08-08T03:05:06.129Z,92.40
2017-08-08T03:07:33.666Z,92.60
2017-08-08T03:10:01.185Z,92.70
2017-08-08T03:12:28.747Z,92.50
2017-08-08T03:14:56.271Z,92.00
2017-08-08T03:17:23.801Z,91.70
2017-08-08T03:19:51.337Z,91.50
2017-08-08T03:22:18.862Z,91.40
2017-08-08T03:24:46.405Z,91.40
2017-08-08T03:27:13.926Z,91.60
2017-08-08T03:29:41.473Z,91.40
2017-08-08T03:32:09.004Z,91.40
2017-08-08T03:34:37.310Z,91.70
2017-08-08T03:37:04.831Z,91.60
2017-08-08T03:39:32.367Z,91.50
2017-08-08T03:41:59.882Z,91.50
2017-08-08T03:44:28.197Z,91.40
2017-08-08T03:46:56.483Z,91.30
2017-08-08T03:49:24.791Z,91.20
2017-08-08T03:51:52.311Z,91.10
2017-08-08T03:54:19.830Z,91.30
2017-08-08T03:56:48.144Z,91.70
2017-08-08T03:59:15.664Z,91.20
2017-08-08T04:01:43.962Z,90.80
2017-08-08T04:04:11.478Z,90.80
2017-08-08T04:06:39.024Z,90.30
2017-08-08T04:09:06.547Z,90.60
2017-08-08T04:11:34.087Z,91.00
2017-08-08T04:14:01.602Z,91.40
2017-08-08T04:16:29.142Z,91.70
2017-08-08T04:18:57.429Z,91.60
2017-08-08T04:21:25.744Z,91.20
2017-08-08T04:23:53.262Z,91.20
2017-08-08T04:26:20.812Z,91.10
2017-08-08T04:28:48.344Z,91.00
2017-08-08T04:31:15.863Z,90.90
2017-08-08T04:33:43.459Z,90.60
2017-08-08T04:36:10.978Z,90.10
2017-08-08T04:38:38.518Z,89.30
2017-08-08T04:41:06.033Z,87.00
2017-08-08T04:43:33.575Z,85.40
2017-08-08T04:46:01.097Z,83.90
2017-08-08T04:48:28.626Z,82.50
2017-08-08T04:50:56.147Z,80.10
2017-08-08T04:53:23.701Z,79.90
2017-08-08T04:55:51.218Z,76.20
2017-08-08T04:58:18.755Z,74.80
2017-08-08T05:00:46.307Z,75.90
2017-08-08T05:03:13.827Z,74.20
2017-08-08T05:05:41.362Z,72.30
2017-08-08T05:08:08.875Z,73.30
2017-08-08T05:10:36.415Z,72.80
2017-08-08T05:13:03.949Z,71.80
2017-08-08T05:15:31.494Z,71.40
2017-08-08T05:17:59.020Z,72.20
2017-08-08T05:20:26.563Z,71.70
2017-08-08T05:22:54.082Z,70.20
2017-08-08T05:25:21.635Z,70.30
2017-08-08T05:27:49.920Z,66.00
2017-08-08T05:30:17.438Z,65.90
2017-08-08T05:32:44.983Z,65.90
2017-08-08T05:35:12.498Z,66.90
2017-08-08T05:37:40.034Z,65.10
2017-08-08T05:40:08.318Z,60.20
2017-08-08T05:42:36.666Z,63.10
2017-08-08T05:45:04.193Z,63.10
2017-08-08T05:47:31.731Z,60.70
2017-08-08T05:49:59.251Z,63.70
2017-08-08T05:52:26.787Z,60.80
2017-08-08T05:54:54.305Z,62.60
2017-08-08T05:57:21.839Z,62.10
2017-08-08T05:59:49.366Z,64.30
2017-08-08T06:02:16.905Z,64.80
2017-08-08T06:04:45.191Z,67.00
2017-08-08T06:07:12.713Z,66.90
2017-08-08T06:09:40.255Z,68.90
2017-08-08T06:12:07.780Z,70.00
2017-08-08T06:14:35.319Z,70.50
2017-08-08T06:17:03.610Z,71.90
2017-08-08T06:19:31.150Z,71.80
2017-08-08T06:21:59.430Z,73.50
2017-08-08T06:24:26.968Z,73.50
2017-08-08T06:26:54.492Z,73.10
2017-08-08T06:29:22.026Z,73.20
2017-08-08T06:31:49.543Z,73.30
2017-08-08T06:34:17.841Z,72.30
2017-08-08T06:36:45.354Z,72.30
2017-08-08T06:39:12.896Z,72.40
2017-08-08T06:41:40.423Z,73.70
2017-08-08T06:44:07.948Z,73.10
2017-08-08T06:46:35.489Z,74.40
2017-08-08T06:49:03.781Z,70.40
2017-08-08T06:51:31.325Z,70.30
2017-08-08T06:53:58.843Z,72.30
2017-08-08T06:56:26.387Z,72.00
2017-08-08T06:58:53.912Z,71.20
2017-08-08T07:01:21.446Z,73.30
2017-08-08T07:03:48.961Z,71.10
2017-08-08T07:06:16.497Z,70.20
2017-08-08T07:08:44.016Z,70.00
2017-08-08T07:11:12.327Z,68.30
2017-08-08T07:13:39.852Z,68.10
2017-08-08T07:16:07.407Z,68.80
2017-08-08T07:18:34.927Z,71.00
2017-08-08T07:21:02.442Z,69.80
2017-08-08T07:23:29.982Z,68.80
2017-08-08T07:25:57.503Z,68.20
2017-08-08T07:28:25.811Z,66.50
2017-08-08T07:30:53.337Z,66.50
2017-08-08T07:33:20.879Z,68.30
2017-08-08T07:35:48.395Z,66.00
2017-08-08T07:38:15.945Z,65.10
2017-08-08T07:40:43.474Z,62.40
2017-08-08T07:43:11.011Z,61.60
2017-08-08T07:45:38.527Z,61.20
2017-08-08T07:48:06.836Z,60.00
2017-08-08T07:50:34.360Z,59.50
2017-08-08T07:53:01.891Z,58.10
2017-08-08T07:55:30.195Z,58.20
2017-08-08T07:57:57.719Z,58.20
2017-08-08T08:00:25.264Z,59.90
2017-08-08T08:02:53.550Z,59.00
2017-08-08T08:05:21.092Z,59.00
2017-08-08T08:07:48.625Z,60.70
2017-08-08T08:10:16.162Z,60.90
2017-08-08T08:12:43.679Z,59.70
2017-08-08T08:15:11.214Z,60.80
2017-08-08T08:17:38.740Z,61.20
2017-08-08T08:20:06.292Z,62.90
2017-08-08T08:22:33.813Z,61.00
2017-08-08T08:25:01.335Z,60.50
2017-08-08T08:27:28.876Z,59.80
2017-08-08T08:29:57.159Z,58.60
2017-08-08T08:32:24.699Z,58.60
2017-08-08T08:34:52.222Z,57.30
2017-08-08T08:37:19.758Z,56.40
2017-08-08T08:39:48.042Z,54.20
2017-08-08T08:42:16.347Z,52.60
2017-08-08T08:44:43.866Z,52.50
2017-08-08T08:47:11.405Z,51.50
2017-08-08T08:49:38.926Z,48.10
2017-08-08T08:52:07.238Z,48.50
2017-08-08T08:54:34.758Z,48.20
2017-08-08T08:57:02.275Z,47.00
2017-08-08T08:59:29.816Z,45.80
2017-08-08T09:01:57.341Z,46.80
2017-08-08T09:04:24.875Z,46.00
2017-08-08T09:06:52.390Z,46.90
2017-08-08T09:09:19.932Z,47.10
2017-08-08T09:11:47.459Z,46.60
2017-08-08T09:14:15.012Z,49.00
2017-08-08T09:16:43.303Z,46.10
2017-08-08T09:19:10.844Z,46.10
2017-08-08T09:21:38.371Z,47.40
2017-08-08T09:24:06.684Z,44.20
2017-08-08T09:26:35.034Z,44.10
2017-08-08T09:29:02.561Z,44.50
2017-08-08T09:31:30.099Z,43.60
2017-08-08T09:33:57.671Z,41.60
2017-08-08T09:36:25.207Z,41.40
2017-08-08T09:38:52.723Z,43.50
2017-08-08T09:41:20.262Z,43.40
2017-08-08T09:43:48.551Z,39.10
2017-08-08T09:46:16.087Z,39.10
2017-08-08T09:48:43.612Z,40.10
2017-08-08T09:51:11.146Z,41.00
2017-08-08T09:53:38.671Z,40.50
2017-08-08T09:56:06.186Z,41.00
2017-08-08T09:58:34.497Z,39.20
2017-08-08T10:01:02.015Z,39.10
2017-08-08T10:03:29.560Z,40.20
2017-08-08T10:05:57.081Z,40.10
2017-08-08T10:08:24.618Z,40.60
2017-08-08T10:10:52.134Z,42.10
2017-08-08T10:13:20.447Z,44.50
2017-08-08T10:15:47.972Z,44.50
2017-08-08T10:18:15.532Z,46.20
2017-08-08T10:20:43.057Z,47.10
2017-08-08T10:23:10.590Z,47.90
2017-08-08T10:25:38.138Z,50.00
2017-08-08T10:28:05.666Z,49.90
2017-08-08T10:30:33.208Z,50.50
2017-08-08T10:33:00.733Z,50.20
2017-08-08T10:35:28.283Z,50.00
2017-08-08T10:37:55.808Z,48.80
2017-08-08T10:40:23.345Z,46.20
2017-08-08T10:42:51.641Z,44.50
2017-08-08T10:45:19.175Z,44.40
2017-08-08T10:47:46.694Z,43.30
2017-08-08T10:50:14.231Z,44.60
2017-08-08T10:52:41.754Z,44.70
2017-08-08T10:55:09.286Z,46.20
2017-08-08T10:57:36.834Z,47.10
2017-08-08T11:00:04.359Z,45.00
2017-08-08T11:02:31.900Z,45.70
2017-08-08T11:05:00.182Z,44.90
2017-08-08T11:07:27.739Z,44.80
2017-08-08T11:09:55.267Z,46.60
2017-08-08T11:12:22.804Z,47.10
2017-08-08T11:14:51.098Z,48.00
2017-08-08T11:17:18.641Z,47.90
2017-08-08T11:19:46.167Z,47.90
2017-08-08T11:22:14.478Z,49.60
2017-08-08T11:24:42.000Z,49.60
2017-08-08T11:27:10.302Z,53.60
2017-08-08T11:29:37.835Z,53.60
2017-08-08T11:32:05.360Z,52.20
2017-08-08T11:34:33.675Z,54.30
2017-08-08T11:37:01.203Z,54.40
2017-08-08T11:39:29.502Z,51.50
2017-08-08T11:41:57.023Z,51.40
2017-08-08T11:44:25.325Z,51.20
2017-08-08T11:46:53.618Z,48.80
2017-08-08T11:49:21.155Z,48.80
2017-08-08T11:51:48.674Z,49.80
2017-08-08T11:54:16.226Z,46.90
2017-08-08T11:56:43.750Z,47.40
2017-08-08T11:59:11.289Z,48.20
2017-08-08T12:01:38.827Z,49.60
2017-08-08T12:04:06.347Z,50.00
2017-08-08T12:06:33.882Z,50.50
2017-08-08T12:09:01.405Z,50.00
2017-08-08T12:11:28.947Z,49.30
2017-08-08T12:13:56.475Z,50.60
2017-08-08T12:16:24.020Z,50.30
2017-08-08T12:18:51.538Z,52.10
2017-08-08T12:21:19.075Z,49.90
2017-08-08T12:23:46.607Z,49.40
2017-08-08T12:26:14.149Z,47.10
2017-08-08T12:28:41.676Z,47.90
2017-08-08T12:31:09.222Z,50.20
2017-08-08T12:33:36.747Z,49.80
2017-08-08T12:36:04.262Z,50.80
2017-08-08T12:38:31.803Z,51.20
2017-08-08T12:40:59.320Z,51.80
2017-08-08T12:43:27.633Z,52.00
2017-08-08T12:45:55.168Z,51.90
2017-08-08T12:48:22.711Z,51.20
2017-08-08T12:50:50.240Z,53.20
2017-08-08T12:53:17.775Z,50.60
2017-08-08T12:55:45.286Z,51.10
2017-08-08T12:58:12.826Z,49.80
2017-08-08T13:00:40.342Z,49.00
2017-08-08T13:03:07.882Z,50.70
2017-08-08T13:05:35.407Z,50.80
2017-08-08T13:08:02.930Z,51.90
2017-08-08T13:10:30.467Z,51.50
2017-08-08T13:12:57.981Z,51.60
2017-08-08T13:15:25.518Z,52.10
2017-08-08T13:17:53.043Z,50.10
2017-08-08T13:20:21.355Z,49.90
2017-08-08T13:22:48.875Z,49.80
2017-08-08T13:25:16.424Z,50.50
2017-08-08T13:27:43.948Z,51.30
2017-08-08T13:30:12.251Z,51.80
2017-08-08T13:32:39.766Z,51.80
2017-08-08T13:35:07.306Z,52.80
2017-08-08T13:37:34.826Z,53.10
2017-08-08T13:40:03.112Z,53.50
2017-08-08T13:42:30.659Z,53.50
2017-08-08T13:44:58.947Z,53.30
2017-08-08T13:47:27.255Z,53.80
2017-08-08T13:49:54.785Z,53.80
2017-08-08T13:52:22.331Z,53.80
2017-08-08T13:54:49.860Z,54.10
2017-08-08T13:57:18.167Z,54.90
2017-08-08T13:59:45.687Z,54.90
2017-08-08T14:02:13.237Z,54.90
2017-08-08T14:04:40.754Z,53.80
2017-08-08T14:07:08.280Z,53.70
2017-08-08T14:09:35.830Z,54.90
2017-08-08T14:12:03.357Z,53.20
2017-08-08T14:14:30.902Z,53.60
2017-08-08T14:16:58.418Z,54.20
2017-08-08T14:19:25.969Z,54.60
2017-08-08T14:21:53.486Z,55.10
2017-08-08T14:24:21.036Z,54.50
2017-08-08T14:26:49.323Z,54.40
2017-08-08T14:29:16.875Z,54.30
2017-08-08T14:31:44.390Z,54.60
2017-08-08T14:34:12.705Z,54.10
2017-08-08T14:36:40.223Z,54.00
2017-08-08T14:39:07.743Z,54.20
2017-08-08T14:41:35.283Z,54.30
2017-08-08T14:44:02.802Z,54.90
2017-08-08T14:46:31.108Z,55.00
2017-08-08T14:48:58.623Z,54.90
2017-08-08T14:51:26.163Z,56.00
2017-08-08T14:53:53.684Z,56.00
2017-08-08T14:56:21.230Z,54.80
2017-08-08T14:58:48.754Z,55.60
2017-08-08T15:01:16.295Z,54.90
2017-08-08T15:03:43.814Z,56.40
2017-08-08T15:06:12.114Z,56.10
2017-08-08T15:08:40.410Z,56.20
2017-08-08T15:11:07.950Z,56.10
2017-08-08T15:13:35.474Z,54.10
2017-08-08T15:16:02.999Z,55.30
2017-08-08T15:18:30.539Z,55.10
2017-08-08T15:20:58.064Z,55.00
2017-08-08T15:23:26.365Z,57.20
2017-08-08T15:25:53.891Z,57.10
2017-08-08T15:28:21.427Z,57.80
2017-08-08T15:30:48.952Z,57.60
2017-08-08T15:33:16.496Z,57.70
2017-08-08T15:35:44.020Z,57.60
2017-08-08T15:38:11.572Z,58.40
2017-08-08T15:40:39.101Z,59.10
2017-08-08T15:43:06.660Z,59.60
2017-08-08T15:45:34.183Z,59.80
2017-08-08T15:48:01.716Z,59.50
2017-08-08T15:50:29.267Z,59.60
2017-08-08T15:52:56.788Z,59.80
2017-08-08T15:55:24.328Z,60.70
2017-08-08T15:57:52.616Z,61.40
2017-08-08T16:00:20.923Z,60.90
2017-08-08T16:02:49.211Z,59.80
2017-08-08T16:05:16.746Z,59.80
2017-08-08T16:07:44.263Z,59.70
2017-08-08T16:10:12.562Z,59.60
2017-08-08T16:12:40.078Z,59.50
2017-08-08T16:15:07.620Z,59.60
2017-08-08T16:17:35.143Z,59.80
2017-08-08T16:20:02.683Z,59.40
2017-08-08T16:22:30.214Z,59.80
2017-08-08T16:24:58.504Z,60.90
2017-08-08T16:27:26.047Z,60.90
2017-08-08T16:29:53.562Z,60.90
2017-08-08T16:32:21.104Z,60.20
2017-08-08T16:34:48.632Z,60.20
2017-08-08T16:37:16.171Z,60.00
2017-08-08T16:39:44.463Z,60.70
2017-08-08T16:42:12.008Z,60.70
2017-08-08T16:44:39.542Z,60.50
2017-08-08T16:47:07.104Z,60.80
2017-08-08T16:49:34.623Z,61.10
2017-08-08T16:52:02.138Z,61.20
2017-08-08T16:54:29.679Z,62.20
2017-08-08T16:56:57.239Z,61.80
2017-08-08T16:59:24.801Z,62.20
2017-08-08T17:01:52.347Z,62.20
2017-08-08T17:04:19.890Z,63.30
2017-08-08T17:06:48.186Z,63.40
2017-08-08T17:09:15.735Z,63.10
2017-08-08T17:11:43.260Z,62.50
2017-08-08T17:14:10.830Z,63.10
2017-08-08T17:16:38.343Z,63.30
2017-08-08T17:19:05.896Z,63.40
2017-08-08T17:21:33.418Z,63.60
2017-08-08T17:24:00.967Z,64.10
2017-08-08T17:26:28.488Z,63.60
2017-08-08T17:28:56.014Z,64.00
2017-08-08T17:31:23.559Z,64.30
2017-08-08T17:33:51.075Z,64.40
2017-08-08T17:36:18.620Z,64.00
2017-08-08T17:38:46.137Z,64.20
2017-08-08T17:41:13.680Z,64.70
2017-08-08T17:43:41.201Z,65.20
2017-08-08T17:46:08.739Z,65.20
2017-08-08T17:48:36.261Z,65.20
2017-08-08T17:51:03.802Z,65.70
2017-08-08T17:53:31.321Z,66.00
2017-08-08T17:55:58.887Z,66.70
2017-08-08T17:58:26.411Z,66.90
2017-08-08T18:00:53.934Z,67.60
2017-08-08T18:03:21.481Z,67.90
2017-08-08T18:05:48.998Z,68.30
2017-08-08T18:08:16.536Z,69.20
2017-08-08T18:10:44.050Z,69.30
2017-08-08T18:13:11.591Z,68.50
2017-08-08T18:15:39.111Z,67.90
2017-08-08T18:18:07.421Z,68.40
2017-08-08T18:20:34.943Z,68.40
2017-08-08T18:23:03.246Z,67.90
2017-08-08T18:25:30.757Z,67.80
2017-08-08T18:27:59.068Z,69.20
2017-08-08T18:30:26.587Z,69.20
2017-08-08T18:32:54.102Z,70.10
2017-08-08T18:35:21.647Z,71.20
2017-08-08T18:37:49.935Z,73.20
2017-08-08T18:40:17.477Z,73.10
2017-08-08T18:42:45.763Z,73.80
2017-08-08T18:45:13.299Z,73.80
2017-08-08T18:47:40.819Z,74.50
2017-08-08T18:50:08.356Z,76.00
2017-08-08T18:52:35.879Z,77.50
2017-08-08T18:55:03.410Z,78.00
2017-08-08T18:57:30.926Z,77.90
2017-08-08T18:59:58.462Z,77.90
2017-08-08T19:02:25.986Z,78.00
2017-08-08T19:04:53.527Z,77.90
2017-08-08T19:07:21.047Z,78.10
2017-08-08T19:09:48.596Z,78.00
2017-08-08T19:12:16.118Z,78.00
2017-08-08T19:14:43.642Z,78.80
2017-08-08T19:17:11.179Z,79.40
2017-08-08T19:19:38.704Z,79.40
2017-08-08T19:22:06.248Z,80.40
2017-08-08T19:24:33.780Z,81.20
2017-08-08T19:27:01.328Z,81.60
2017-08-08T19:29:28.851Z,81.90
2017-08-08T19:31:56.399Z,82.70
2017-08-08T19:34:23.931Z,82.80
2017-08-08T19:36:51.466Z,82.20
2017-08-08T19:39:18.983Z,81.50
2017-08-08T19:41:46.528Z,81.00
2017-08-08T19:44:14.047Z,81.50
2017-08-08T19:46:45.679Z,83.00
2017-08-08T19:49:13.975Z,84.40
2017-08-08T19:51:42.291Z,85.60
2017-08-08T19:54:09.811Z,84.80
2017-08-08T19:56:38.091Z,84.60
2017-08-08T19:59:06.394Z,84.00
2017-08-08T20:01:33.907Z,83.90
2017-08-08T20:04:01.454Z,83.50
2017-08-08T20:06:29.754Z,83.70
2017-08-08T20:08:57.291Z,83.50
2017-08-08T20:11:24.812Z,83.60
2017-08-08T20:13:52.351Z,84.60
2017-08-08T20:16:19.877Z,84.70
2017-08-08T20:18:47.420Z,84.50
2017-08-08T20:21:14.942Z,83.90
2017-08-08T20:23:42.487Z,84.50
2017-08-08T20:26:10.011Z,85.20
2017-08-08T20:28:37.551Z,86.20
2017-08-08T20:31:05.076Z,86.70
2017-08-08T20:33:32.591Z,86.40
2017-08-08T20:36:00.898Z,85.60
2017-08-08T20:38:29.192Z,85.30
2017-08-08T20:40:56.731Z,85.40
2017-08-08T20:43:24.262Z,84.20
2017-08-08T20:45:51.812Z,85.20
2017-08-08T20:48:20.098Z,86.00
2017-08-08T20:50:48.408Z,86.60
2017-08-08T20:53:15.922Z,86.60
2017-08-08T20:55:44.250Z,86.60
2017-08-08T20:58:13.754Z,86.10
2017-08-08T21:00:41.297Z,86.00
2017-08-08T21:03:08.819Z,85.90
2017-08-08T21:05:37.129Z,87.70
2017-08-08T21:08:04.647Z,88.50
2017-08-08T21:10:32.938Z,86.80
2017-08-08T21:13:01.240Z,86.60
2017-08-08T21:15:28.755Z,86.50
2017-08-08T21:17:56.300Z,85.60
2017-08-08T21:20:23.825Z,86.40
2017-08-08T21:22:51.362Z,87.40
2017-08-08T21:25:18.903Z,88.00
2017-08-08T21:27:46.447Z,88.20
2017-08-08T21:30:13.975Z,88.40
2017-08-08T21:32:41.523Z,88.30
2017-08-08T21:35:09.037Z,88.20
2017-08-08T21:37:36.579Z,88.00
2017-08-08T21:40:04.103Z,88.40
2017-08-08T21:42:31.651Z,89.40
2017-08-08T21:44:59.176Z,90.00
2017-08-08T21:47:26.699Z,90.00
2017-08-08T21:49:54.240Z,89.80
2017-08-08T21:52:22.532Z,89.50
2017-08-08T21:54:50.075Z,89.50
2017-08-08T21:57:18.658Z,89.50
2017-08-08T21:59:46.194Z,89.00
2017-08-08T22:02:13.722Z,89.00
2017-08-08T22:04:41.257Z,89.30
2017-08-08T22:07:08.776Z,89.30
2017-08-08T22:09:36.313Z,89.00
2017-08-08T22:12:03.830Z,88.70
2017-08-08T22:14:31.361Z,87.50
2017-08-08T22:16:59.649Z,87.10
2017-08-08T22:19:27.211Z,87.00
2017-08-08T22:21:54.741Z,87.90
2017-08-08T22:24:23.031Z,90.40
2017-08-08T22:26:50.567Z,90.40
2017-08-08T22:29:18.082Z,90.40
2017-08-08T22:31:45.617Z,90.40
2017-08-08T22:34:13.174Z,91.00
2017-08-08T22:36:40.714Z,90.90
2017-08-08T22:39:08.238Z,91.10
2017-08-08T22:41:35.774Z,91.20
2017-08-08T22:44:03.296Z,91.30
2017-08-08T22:46:30.842Z,91.40
2017-08-08T22:48:58.367Z,91.30
2017-08-08T22:51:26.674Z,89.70
2017-08-08T22:53:54.967Z,90.40
2017-08-08T22:56:22.506Z,90.40
2017-08-08T22:58:50.032Z,90.90
2017-08-08T23:01:17.571Z,91.00
2017-08-08T23:03:45.090Z,90.90
2017-08-08T23:06:12.611Z,91.10
2017-08-08T23:08:40.146Z,91.30
2017-08-08T23:11:07.661Z,91.40
2017-08-08T23:13:35.204Z,91.60
2017-08-08T23:16:02.721Z,90.00
2017-08-08T23:18:30.258Z,90.50
2017-08-08T23:20:57.785Z,90.70
2017-08-08T23:23:26.095Z,90.80
2017-08-08T23:25:54.378Z,90.80
2017-08-08T23:28:21.919Z,90.80
2017-08-08T23:30:49.443Z,91.30
2017-08-08T23:33:16.987Z,91.60
2017-08-08T23:35:44.502Z,91.80
2017-08-08T23:38:12.783Z,92.80
2017-08-08T23:40:40.323Z,92.70
2017-08-08T23:43:07.856Z,92.70
2017-08-08T23:45:35.396Z,92.40
2017-08-08T23:48:02.927Z,92.20
2017-08-08T23:50:31.231Z,92.10
2017-08-08T23:52:58.750Z,92.10
2017-08-08T23:55:26.295Z,92.20
2017-08-08T23:57:53.824Z,92.30
